createdAt,value
2022-12-04T00:00:13.207Z,88.20
2022-12-04T00:02:41.084Z,80.75
2022-12-04T00:05:09.965Z,92.07
2022-12-04T00:07:36.858Z,93.20
2022-12-04T00:10:04.338Z,94.05
2022-12-04T00:12:30.985Z,84.85
2022-12-04T00:15:27.543Z,100.53
2022-12-04T00:17:48.039Z,84.45
2022-12-04T00:20:14.806Z,91.10
2022-12-04T00:22:41.363Z,85.47
2022-12-04T00:25:08.524Z,87.32
2022-12-04T00:27:35.115Z,76.18
2022-12-04T00:30:02.032Z,88.63
2022-12-04T00:32:28.623Z,72.22
2022-12-04T00:34:55.255Z,79.18
2022-12-04T00:37:21.815Z,89.15
2022-12-04T00:39:48.529Z,97.45
2022-12-04T00:42:15.444Z,75.28
2022-12-04T00:44:42.136Z,93.00
2022-12-04T00:47:12.146Z,83.57
2022-12-04T00:49:38.824Z,78.32
2022-12-04T00:52:05.615Z,75.97
2022-12-04T00:54:32.304Z,76.45
2022-12-04T00:56:58.832Z,70.97
2022-12-04T00:59:25.469Z,89.13
2022-12-04T01:01:52.097Z,82.13
2022-12-04T01:04:18.799Z,76.93
2022-12-04T01:06:46.827Z,86.03
2022-12-04T01:09:13.504Z,75.32
2022-12-04T01:11:40.163Z,94.22
2022-12-04T01:14:06.984Z,86.90
2022-12-04T01:16:36.677Z,100.45
2022-12-04T01:19:05.227Z,82.07
2022-12-04T01:21:31.934Z,85.95
2022-12-04T01:23:59.773Z,83.13
2022-12-04T01:26:27.270Z,62.13
2022-12-04T01:31:21.526Z,88.38
2022-12-04T01:33:49.235Z,93.45
2022-12-04T01:36:22.852Z,99.03
2022-12-04T01:38:49.947Z,96.50
2022-12-04T01:41:18.953Z,108.25
2022-12-04T01:46:12.219Z,90.05
2022-12-04T01:48:53.896Z,101.85
2022-12-04T01:51:27.188Z,66.87
2022-12-04T01:53:59.290Z,99.45
2022-12-04T01:56:33.580Z,82.90
2022-12-04T01:59:02.967Z,87.25
2022-12-04T02:01:35.336Z,94.95
2022-12-04T02:04:03.321Z,100.95
2022-12-04T02:06:29.891Z,93.05
2022-12-04T02:08:56.539Z,87.75
2022-12-04T02:12:02.383Z,91.03
2022-12-04T02:14:38.447Z,107.10
2022-12-04T02:17:10.336Z,112.95
2022-12-04T02:20:14.371Z,102.47
2022-12-04T02:23:05.959Z,95.28
2022-12-04T02:25:44.307Z,93.55
2022-12-04T02:28:43.384Z,134.48
2022-12-04T02:31:17.018Z,119.00
2022-12-04T02:34:21.954Z,94.35
2022-12-04T02:36:59.007Z,91.93
2022-12-04T02:39:36.195Z,109.55
2022-12-04T02:42:06.311Z,111.38
2022-12-04T02:47:10.676Z,94.22
2022-12-04T02:49:44.498Z,92.75
2022-12-04T02:52:15.432Z,87.68
2022-12-04T02:54:54.495Z,90.72
2022-12-04T02:57:29.972Z,94.13
2022-12-04T02:59:58.721Z,95.32
2022-12-04T03:02:40.499Z,104.07
2022-12-04T03:05:15.672Z,99.43
2022-12-04T03:07:52.308Z,90.82
2022-12-04T03:10:24.820Z,82.38
2022-12-04T03:12:58.424Z,71.38
2022-12-04T03:16:03.804Z,82.30
2022-12-04T03:18:39.902Z,69.10
2022-12-04T03:21:29.913Z,64.35
2022-12-04T03:24:04.615Z,80.32
2022-12-04T03:26:42.226Z,102.68
2022-12-04T03:29:22.540Z,77.95
2022-12-04T03:31:55.814Z,82.35
2022-12-04T03:34:32.488Z,122.85
2022-12-04T03:37:08.026Z,92.28
2022-12-04T03:40:00.650Z,76.22
2022-12-04T03:45:10.663Z,83.57
2022-12-04T03:47:46.036Z,83.85
2022-12-04T03:50:24.139Z,82.00
2022-12-04T03:53:00.388Z,70.63
2022-12-04T03:55:41.475Z,88.35
2022-12-04T03:58:14.125Z,83.10
2022-12-04T04:00:43.134Z,99.28
2022-12-04T04:03:16.195Z,102.15
2022-12-04T04:05:47.437Z,91.55
2022-12-04T04:08:29.895Z,117.07
2022-12-04T04:11:07.944Z,94.07
2022-12-04T04:14:11.950Z,92.90
2022-12-04T04:17:01.683Z,88.78
2022-12-04T04:19:49.461Z,100.38
2022-12-04T04:22:36.721Z,95.97
2022-12-04T04:25:09.059Z,97.57
2022-12-04T04:30:02.259Z,75.20
2022-12-04T04:32:37.941Z,94.20
2022-12-04T04:35:11.097Z,101.53
2022-12-04T04:38:01.684Z,88.72
2022-12-04T04:40:41.417Z,70.50
2022-12-04T04:43:08.013Z,62.30
2022-12-04T04:45:40.737Z,71.55
2022-12-04T04:48:15.245Z,81.28
2022-12-04T04:50:43.195Z,76.78
2022-12-04T04:53:15.466Z,65.80
2022-12-04T04:55:42.567Z,80.03
2022-12-04T04:58:11.974Z,69.03
2022-12-04T05:00:39.410Z,61.10
2022-12-04T05:03:06.512Z,67.00
2022-12-04T05:05:33.195Z,73.00
2022-12-04T05:07:59.812Z,63.28
2022-12-04T05:10:26.435Z,60.28
2022-12-04T05:12:53.011Z,64.70
2022-12-04T05:15:19.610Z,70.15
2022-12-04T05:17:46.143Z,63.05
2022-12-04T05:20:12.911Z,59.10
2022-12-04T05:22:39.667Z,67.63
2022-12-04T05:25:06.954Z,61.00
2022-12-04T05:27:34.304Z,50.25
2022-12-04T05:30:01.079Z,63.95
2022-12-04T05:32:29.156Z,61.22
2022-12-04T05:34:57.039Z,52.00
2022-12-04T05:37:24.189Z,75.20
2022-12-04T05:39:50.831Z,60.97
2022-12-04T05:42:17.355Z,64.18
2022-12-04T05:44:44.200Z,67.15
2022-12-04T05:47:11.078Z,69.53
2022-12-04T05:49:37.747Z,73.70
2022-12-04T05:52:05.689Z,63.28
2022-12-04T05:54:32.383Z,71.97
2022-12-04T05:56:59.384Z,69.32
2022-12-04T05:59:26.140Z,67.90
2022-12-04T06:01:53.019Z,63.95
2022-12-04T06:06:44.182Z,67.15
2022-12-04T06:09:11.795Z,54.75
2022-12-04T06:11:40.428Z,61.65
2022-12-04T06:14:10.509Z,63.83
2022-12-04T06:16:39.892Z,67.35
2022-12-04T06:19:18.621Z,60.80
2022-12-04T06:21:48.710Z,65.85
2022-12-04T06:24:20.700Z,66.53
2022-12-04T06:27:18.969Z,88.15
2022-12-04T06:29:34.723Z,86.07
2022-12-04T06:32:01.450Z,87.40
2022-12-04T06:34:28.173Z,67.32
2022-12-04T06:36:55.346Z,68.95
2022-12-04T06:39:22.112Z,64.03
2022-12-04T06:41:48.716Z,67.60
2022-12-04T06:44:16.473Z,69.18
2022-12-04T06:46:46.935Z,63.53
2022-12-04T06:49:14.181Z,63.55
2022-12-04T06:51:41.117Z,62.78
2022-12-04T06:54:08.965Z,67.25
2022-12-04T06:56:35.852Z,72.47
2022-12-04T06:59:04.298Z,62.20
2022-12-04T07:01:33.756Z,64.20
2022-12-04T07:04:03.355Z,68.93
2022-12-04T07:06:32.952Z,60.47
2022-12-04T07:09:00.940Z,56.78
2022-12-04T07:11:27.668Z,58.83
2022-12-04T07:13:55.895Z,54.33
2022-12-04T07:16:24.095Z,60.40
2022-12-04T07:18:53.288Z,62.25
2022-12-04T07:21:22.742Z,48.45
2022-12-04T07:23:56.221Z,60.67
2022-12-04T07:26:23.984Z,58.45
2022-12-04T07:28:50.598Z,57.47
2022-12-04T07:31:19.541Z,55.42
2022-12-04T07:33:47.454Z,58.08
2022-12-04T07:36:19.520Z,55.35
2022-12-04T07:41:13.325Z,64.43
2022-12-04T07:43:40.784Z,68.45
2022-12-04T07:46:14.475Z,60.70
2022-12-04T07:48:41.291Z,53.00
2022-12-04T07:51:14.214Z,57.78
2022-12-04T07:53:42.086Z,54.78
2022-12-04T07:56:10.139Z,58.25
2022-12-04T07:58:37.123Z,57.13
2022-12-04T08:01:15.692Z,59.72
2022-12-04T08:03:47.968Z,58.05
2022-12-04T08:06:19.664Z,62.92
2022-12-04T08:08:47.234Z,58.90
2022-12-04T08:11:17.625Z,54.35
2022-12-04T08:13:45.282Z,60.92
2022-12-04T08:16:13.328Z,57.25
2022-12-04T08:18:41.522Z,52.65
2022-12-04T08:21:11.469Z,52.17
2022-12-04T08:23:39.204Z,54.53
2022-12-04T08:26:07.172Z,54.72
2022-12-04T08:28:36.926Z,57.40
2022-12-04T08:31:05.744Z,56.90
2022-12-04T08:33:32.913Z,61.92
2022-12-04T08:35:59.689Z,63.63
2022-12-04T08:38:26.548Z,64.07
2022-12-04T08:40:53.103Z,59.47
2022-12-04T08:43:19.787Z,59.60
2022-12-04T08:46:01.653Z,59.33
2022-12-04T08:48:29.018Z,54.13
2022-12-04T08:50:58.772Z,57.90
2022-12-04T08:53:26.496Z,55.33
2022-12-04T08:55:53.183Z,58.30
2022-12-04T08:58:20.086Z,56.90
2022-12-04T09:00:46.904Z,48.85
2022-12-04T09:03:19.736Z,55.83
2022-12-04T09:05:46.816Z,65.97
2022-12-04T09:08:15.756Z,61.00
2022-12-04T09:10:42.746Z,62.90
2022-12-04T09:13:09.718Z,55.83
2022-12-04T09:15:40.064Z,53.92
2022-12-04T09:18:07.898Z,57.50
2022-12-04T09:20:35.166Z,62.33
2022-12-04T09:23:04.939Z,53.47
2022-12-04T09:25:36.331Z,59.38
2022-12-04T09:28:03.348Z,56.13
2022-12-04T09:30:29.962Z,53.75
2022-12-04T09:32:56.718Z,62.47
2022-12-04T09:35:23.255Z,55.53
2022-12-04T09:37:49.892Z,58.17
2022-12-04T09:41:09.096Z,57.65
2022-12-04T09:43:56.023Z,47.42
2022-12-04T09:46:27.365Z,54.03
2022-12-04T09:48:57.431Z,62.57
2022-12-04T09:51:26.252Z,63.72
2022-12-04T09:54:26.926Z,58.42
2022-12-04T09:57:06.545Z,58.03
2022-12-04T09:59:33.347Z,59.97
2022-12-04T10:02:23.555Z,58.17
2022-12-04T10:04:50.311Z,58.63
2022-12-04T10:07:22.845Z,55.42
2022-12-04T10:10:05.783Z,56.55
2022-12-04T10:12:35.011Z,54.45
2022-12-04T10:15:01.808Z,55.03
2022-12-04T10:18:04.490Z,61.60
2022-12-04T10:20:46.452Z,55.72
2022-12-04T10:23:28.258Z,64.22
2022-12-04T10:25:55.359Z,71.28
2022-12-04T10:28:31.910Z,62.58
2022-12-04T10:31:02.120Z,54.67
2022-12-04T10:33:37.967Z,50.60
2022-12-04T10:36:05.383Z,61.60
2022-12-04T10:39:02.648Z,63.03
2022-12-04T10:41:40.594Z,56.72
2022-12-04T10:44:19.446Z,52.65
2022-12-04T10:46:47.033Z,52.30
2022-12-04T10:49:25.737Z,51.22
2022-12-04T10:51:53.042Z,59.25
2022-12-04T10:54:26.900Z,53.25
2022-12-04T10:57:02.099Z,56.92
2022-12-04T10:59:30.223Z,57.35
2022-12-04T11:02:16.473Z,49.78
2022-12-04T11:04:43.591Z,52.05
2022-12-04T11:07:20.898Z,49.75
2022-12-04T11:10:32.777Z,51.35
2022-12-04T11:15:15.163Z,56.47
2022-12-04T11:17:41.809Z,58.85
2022-12-04T11:20:16.601Z,56.85
2022-12-04T11:22:51.203Z,61.53
2022-12-04T11:25:19.946Z,57.38
2022-12-04T11:27:50.494Z,56.65
2022-12-04T11:30:25.133Z,52.83
2022-12-04T11:32:53.622Z,45.65
2022-12-04T11:35:29.247Z,49.53
2022-12-04T11:38:07.231Z,39.70
2022-12-04T11:40:34.674Z,45.03
2022-12-04T11:43:10.063Z,45.70
2022-12-04T11:45:36.919Z,48.92
2022-12-04T11:48:13.509Z,49.22
2022-12-04T11:51:14.656Z,44.92
2022-12-04T11:53:57.750Z,46.38
2022-12-04T11:56:45.560Z,44.50
2022-12-04T11:59:36.943Z,48.35
2022-12-04T12:02:12.432Z,52.90
2022-12-04T12:04:42.424Z,39.95
2022-12-04T12:07:25.618Z,44.67
2022-12-04T12:10:03.038Z,41.95
2022-12-04T12:12:50.938Z,44.40
2022-12-04T12:15:30.087Z,41.50
2022-12-04T12:18:32.095Z,40.47
2022-12-04T12:21:23.229Z,39.43
2022-12-04T12:24:20.641Z,36.38
2022-12-04T12:27:21.383Z,40.70
2022-12-04T12:30:17.787Z,40.47
2022-12-04T12:32:47.266Z,42.00
2022-12-04T12:35:45.180Z,37.88
2022-12-04T12:38:14.672Z,36.20
2022-12-04T12:40:50.457Z,39.15
2022-12-04T12:43:27.568Z,41.20
2022-12-04T12:46:00.576Z,38.90
2022-12-04T12:48:40.242Z,34.75
2022-12-04T12:51:31.992Z,39.58
2022-12-04T12:54:15.783Z,31.30
2022-12-04T12:56:50.056Z,36.85
2022-12-04T12:59:20.923Z,32.95
2022-12-04T13:02:00.316Z,38.40
2022-12-04T13:04:39.678Z,39.90
2022-12-04T13:07:18.416Z,43.97
2022-12-04T13:09:50.340Z,42.42
2022-12-04T13:12:19.444Z,41.13
2022-12-04T13:14:49.023Z,38.65
2022-12-04T13:17:19.576Z,38.20
2022-12-04T13:19:52.925Z,35.13
2022-12-04T13:22:22.320Z,39.55
2022-12-04T13:25:00.944Z,48.33
2022-12-04T13:28:00.079Z,38.17
2022-12-04T13:30:50.579Z,40.53
2022-12-04T13:33:32.351Z,37.15
2022-12-04T13:36:40.495Z,38.97
2022-12-04T13:39:25.344Z,39.60
2022-12-04T13:42:02.765Z,44.88
2022-12-04T13:44:31.618Z,37.05
2022-12-04T13:47:04.929Z,42.63
2022-12-04T13:49:37.446Z,38.25
2022-12-04T13:52:23.961Z,36.92
2022-12-04T13:55:00.266Z,40.15
2022-12-04T13:57:28.211Z,37.35
2022-12-04T14:00:29.406Z,38.33
2022-12-04T14:02:59.199Z,39.80
2022-12-04T14:05:29.992Z,41.45
2022-12-04T14:08:19.939Z,40.78
2022-12-04T14:11:06.019Z,39.42
2022-12-04T14:13:50.386Z,38.03
2022-12-04T14:16:57.027Z,43.35
2022-12-04T14:19:39.389Z,42.17
2022-12-04T14:22:24.027Z,45.45
2022-12-04T14:24:50.665Z,43.03
2022-12-04T14:27:53.641Z,43.20
2022-12-04T14:30:31.536Z,51.90
2022-12-04T14:33:18.110Z,48.30
2022-12-04T14:35:55.364Z,49.25
2022-12-04T14:38:23.427Z,41.05
2022-12-04T14:40:53.640Z,39.80
2022-12-04T14:43:23.695Z,34.17
2022-12-04T14:46:14.766Z,38.53
2022-12-04T14:48:47.735Z,31.83
2022-12-04T14:51:29.227Z,36.45
2022-12-04T14:54:00.498Z,31.20
2022-12-04T14:57:17.198Z,34.57
2022-12-04T14:59:55.134Z,39.78
2022-12-04T15:02:28.651Z,36.25
2022-12-04T15:04:57.221Z,54.85
2022-12-04T15:07:28.268Z,35.75
2022-12-04T15:10:16.877Z,40.70
2022-12-04T15:12:54.616Z,41.40
2022-12-04T15:15:25.712Z,39.88
2022-12-04T15:18:17.261Z,43.50
2022-12-04T15:20:49.756Z,48.28
2022-12-04T15:23:26.588Z,45.92
2022-12-04T15:25:55.920Z,47.90
2022-12-04T15:28:33.129Z,46.03
2022-12-04T15:31:03.159Z,41.35
2022-12-04T15:33:34.598Z,41.63
2022-12-04T15:36:30.620Z,44.42
2022-12-04T15:38:57.292Z,41.60
2022-12-04T15:41:36.272Z,42.67
2022-12-04T15:44:40.195Z,38.13
2022-12-04T15:47:19.428Z,37.15
2022-12-04T15:49:46.299Z,38.15
2022-12-04T15:52:12.839Z,34.47
2022-12-04T15:55:03.043Z,26.00
2022-12-04T15:57:33.714Z,32.60
2022-12-04T16:00:05.124Z,37.75
2022-12-04T16:02:40.234Z,34.77
2022-12-04T16:05:27.021Z,32.72
2022-12-04T16:07:58.389Z,32.85
2022-12-04T16:10:28.543Z,31.70
2022-12-04T16:12:57.688Z,37.78
2022-12-04T16:15:27.047Z,41.83
2022-12-04T16:17:54.032Z,41.90
2022-12-04T16:20:20.777Z,41.67
2022-12-04T16:22:53.023Z,36.20
2022-12-04T16:27:46.123Z,37.00
2022-12-04T16:30:13.954Z,39.47
2022-12-04T16:32:40.566Z,38.25
2022-12-04T16:35:07.601Z,33.03
2022-12-04T16:37:34.214Z,38.97
2022-12-04T16:40:06.371Z,37.38
2022-12-04T16:42:32.942Z,37.92
2022-12-04T16:44:59.789Z,34.35
2022-12-04T16:47:26.699Z,40.53
2022-12-04T16:49:53.408Z,39.58
2022-12-04T16:52:20.976Z,36.25
2022-12-04T16:54:47.922Z,41.05
2022-12-04T16:57:14.484Z,37.63
2022-12-04T16:59:41.019Z,39.03
2022-12-04T17:02:26.156Z,34.53
2022-12-04T17:04:57.270Z,35.08
2022-12-04T17:07:25.106Z,37.90
2022-12-04T17:09:51.687Z,37.80
2022-12-04T17:12:18.286Z,39.75
2022-12-04T17:14:45.155Z,40.17
2022-12-04T17:17:11.753Z,41.92
2022-12-04T17:19:38.239Z,36.17
2022-12-04T17:22:04.823Z,40.30
2022-12-04T17:24:31.474Z,43.65
2022-12-04T17:26:58.264Z,41.17
2022-12-04T17:29:24.818Z,44.92
2022-12-04T17:31:51.500Z,43.30
2022-12-04T17:34:18.087Z,39.55
2022-12-04T17:36:44.728Z,40.85
2022-12-04T17:39:13.571Z,37.33
2022-12-04T17:41:40.150Z,41.05
2022-12-04T17:44:06.689Z,38.58
2022-12-04T17:46:33.665Z,45.45
2022-12-04T17:49:04.053Z,46.20
2022-12-04T17:51:34.963Z,34.85
2022-12-04T17:54:01.667Z,43.42
2022-12-04T17:56:28.347Z,42.85
2022-12-04T17:58:55.188Z,42.13
2022-12-04T18:01:27.603Z,34.28
2022-12-04T18:04:03.942Z,45.65
2022-12-04T18:06:34.020Z,40.58
2022-12-04T18:09:01.277Z,42.30
2022-12-04T18:11:30.256Z,43.10
2022-12-04T18:14:00.673Z,47.25
2022-12-04T18:16:29.027Z,43.58
2022-12-04T18:18:57.305Z,41.67
2022-12-04T18:21:24.274Z,42.85
2022-12-04T18:23:51.394Z,50.50
2022-12-04T18:26:20.983Z,38.45
2022-12-04T18:28:49.745Z,46.85
2022-12-04T18:31:20.003Z,41.80
2022-12-04T18:33:47.668Z,38.25
2022-12-04T18:41:14.340Z,44.50
2022-12-04T18:43:43.267Z,41.05
2022-12-04T18:46:12.383Z,40.22
2022-12-04T18:48:40.019Z,45.38
2022-12-04T18:51:26.777Z,44.95
2022-12-04T18:53:58.260Z,43.38
2022-12-04T18:56:25.522Z,48.00
2022-12-04T18:59:00.597Z,45.03
2022-12-04T19:01:28.135Z,42.35
2022-12-04T19:03:59.817Z,47.92
2022-12-04T19:06:30.944Z,42.60
2022-12-04T19:08:59.919Z,35.97
2022-12-04T19:11:27.470Z,45.22
2022-12-04T19:13:54.536Z,38.08
2022-12-04T19:16:21.332Z,39.28
2022-12-04T19:18:48.116Z,47.75
2022-12-04T19:21:15.503Z,36.35
2022-12-04T19:23:43.422Z,38.50
2022-12-04T19:26:12.290Z,43.85
2022-12-04T19:28:39.190Z,43.05
2022-12-04T19:31:14.770Z,47.65
2022-12-04T19:33:42.053Z,41.63
2022-12-04T19:36:10.405Z,48.60
2022-12-04T19:38:37.442Z,45.78
2022-12-04T19:41:10.379Z,46.55
2022-12-04T19:43:38.752Z,38.97
2022-12-04T19:46:07.068Z,44.67
2022-12-04T19:48:34.716Z,46.40
2022-12-04T19:51:22.082Z,44.95
2022-12-04T19:53:49.628Z,44.63
2022-12-04T19:56:24.064Z,38.42
2022-12-04T19:58:56.092Z,43.38
2022-12-04T20:01:25.331Z,44.05
2022-12-04T20:03:52.913Z,42.65
2022-12-04T20:06:21.933Z,40.13
2022-12-04T20:09:00.539Z,42.95
2022-12-04T20:11:29.201Z,42.83
2022-12-04T20:13:57.252Z,44.45
2022-12-04T20:16:26.004Z,41.10
2022-12-04T20:18:53.341Z,44.83
2022-12-04T20:21:21.198Z,46.75
2022-12-04T20:23:50.056Z,46.20
2022-12-04T20:26:20.540Z,46.28
2022-12-04T20:28:47.797Z,48.97
2022-12-04T20:31:23.793Z,42.85
2022-12-04T20:33:52.850Z,34.30
2022-12-04T20:36:21.828Z,39.38
2022-12-04T20:38:49.610Z,35.22
2022-12-04T20:41:20.273Z,43.15
2022-12-04T20:43:47.659Z,38.88
2022-12-04T20:46:20.266Z,49.03
2022-12-04T20:48:49.245Z,44.83
2022-12-04T20:51:21.139Z,45.85
2022-12-04T20:53:49.820Z,45.47
2022-12-04T20:56:17.380Z,42.42
2022-12-04T20:58:44.413Z,46.10
2022-12-04T21:01:14.235Z,50.70
2022-12-04T21:03:41.127Z,46.00
2022-12-04T21:06:17.790Z,49.90
2022-12-04T21:08:55.909Z,38.65
2022-12-04T21:11:34.743Z,43.72
2022-12-04T21:14:21.933Z,42.28
2022-12-04T21:16:48.956Z,41.67
2022-12-04T21:19:17.992Z,43.85
2022-12-04T21:21:45.485Z,41.35
2022-12-04T21:24:17.790Z,41.38
2022-12-04T21:26:45.381Z,41.00
2022-12-04T21:29:12.068Z,43.20
2022-12-04T21:33:59.008Z,46.67
2022-12-04T21:36:26.699Z,45.80
2022-12-04T21:38:53.568Z,47.55
2022-12-04T21:41:38.786Z,40.10
2022-12-04T21:44:14.132Z,42.28
2022-12-04T21:46:40.898Z,43.75
2022-12-04T21:49:07.806Z,42.05
2022-12-04T21:54:23.151Z,42.45
2022-12-04T21:56:49.788Z,47.72
2022-12-04T21:59:16.746Z,43.10
2022-12-04T22:01:43.842Z,39.78
2022-12-04T22:04:10.594Z,44.17
2022-12-04T22:06:37.889Z,43.97
2022-12-04T22:09:08.042Z,41.40
2022-12-04T22:11:35.144Z,41.22
2022-12-04T22:14:01.768Z,43.42
2022-12-04T22:16:30.981Z,45.35
2022-12-04T22:18:59.280Z,51.60
2022-12-04T22:21:27.507Z,50.00
2022-12-04T22:26:25.142Z,45.72
2022-12-04T22:28:52.105Z,47.75
2022-12-04T22:31:20.435Z,47.05
2022-12-04T22:33:49.522Z,41.80
2022-12-04T22:36:19.746Z,43.13
2022-12-04T22:39:08.101Z,44.15
2022-12-04T22:41:34.994Z,40.63
2022-12-04T22:44:01.527Z,45.03
2022-12-04T22:46:28.253Z,39.58
2022-12-04T22:48:54.892Z,41.08
2022-12-04T22:51:22.408Z,44.33
2022-12-04T22:53:52.070Z,44.63
2022-12-04T22:56:30.700Z,41.95
2022-12-04T22:58:58.648Z,41.58
2022-12-04T23:01:27.587Z,45.45
2022-12-04T23:03:55.119Z,43.17
2022-12-04T23:06:24.515Z,46.92
2022-12-04T23:08:59.109Z,45.10
2022-12-04T23:11:26.855Z,39.70
2022-12-04T23:13:56.421Z,44.78
2022-12-04T23:16:24.444Z,40.70
2022-12-04T23:18:51.206Z,41.72
2022-12-04T23:21:19.270Z,44.03
2022-12-04T23:23:47.109Z,45.72
2022-12-04T23:26:19.762Z,34.60
2022-12-04T23:28:47.044Z,41.05
2022-12-04T23:31:14.410Z,38.80
2022-12-04T23:33:41.879Z,40.70
2022-12-04T23:36:10.791Z,45.08
2022-12-04T23:38:38.778Z,46.88
2022-12-04T23:43:34.670Z,51.67
2022-12-04T23:46:05.790Z,55.20
2022-12-04T23:48:35.730Z,41.55
2022-12-04T23:51:02.404Z,48.67
2022-12-04T23:53:29.639Z,43.70
2022-12-04T23:56:12.104Z,45.50
